sensor_id;sensor_type;location;lat;lon;timestamp;P1;durP1;ratioP1;P2;durP2;ratioP2
62711;SDS011;48772;55.586;37.730;2022-12-07T00:01:04;4.63;;;1.93;;
62711;SDS011;48772;55.586;37.730;2022-12-07T00:03:35;4.03;;;2.03;;
62711;SDS011;48772;55.586;37.730;2022-12-07T00:06:02;5.90;;;2.70;;
62711;SDS011;48772;55.586;37.730;2022-12-07T00:08:29;1.83;;;1.60;;
62711;SDS011;48772;55.586;37.730;2022-12-07T00:11:06;2.67;;;1.90;;
62711;SDS011;48772;55.586;37.730;2022-12-07T00:13:34;5.47;;;2.30;;
62711;SDS011;48772;55.586;37.730;2022-12-07T00:16:01;5.03;;;2.70;;
62711;SDS011;48772;55.586;37.730;2022-12-07T00:18:28;1.53;;;1.43;;
62711;SDS011;48772;55.586;37.730;2022-12-07T00:21:02;2.43;;;2.23;;
62711;SDS011;48772;55.586;37.730;2022-12-07T00:23:29;5.73;;;2.10;;
62711;SDS011;48772;55.586;37.730;2022-12-07T00:25:55;4.47;;;2.20;;
62711;SDS011;48772;55.586;37.730;2022-12-07T00:28:27;4.23;;;2.50;;
62711;SDS011;48772;55.586;37.730;2022-12-07T00:30:59;3.27;;;2.07;;
62711;SDS011;48772;55.586;37.730;2022-12-07T00:33:25;7.10;;;3.30;;
62711;SDS011;48772;55.586;37.730;2022-12-07T00:35:57;5.90;;;2.63;;
62711;SDS011;48772;55.586;37.730;2022-12-07T00:38:24;2.97;;;2.00;;
62711;SDS011;48772;55.586;37.730;2022-12-07T00:40:56;2.87;;;1.77;;
62711;SDS011;48772;55.586;37.730;2022-12-07T00:43:23;5.15;;;3.15;;
62711;SDS011;48772;55.586;37.730;2022-12-07T00:45:49;3.33;;;2.47;;
62711;SDS011;48772;55.586;37.730;2022-12-07T00:48:15;3.00;;;2.03;;
62711;SDS011;48772;55.586;37.730;2022-12-07T00:50:41;4.43;;;2.30;;
62711;SDS011;48772;55.586;37.730;2022-12-07T00:53:07;4.17;;;2.67;;
62711;SDS011;48772;55.586;37.730;2022-12-07T00:55:36;5.33;;;2.87;;
62711;SDS011;48772;55.586;37.730;2022-12-07T00:58:03;5.87;;;2.53;;
62711;SDS011;48772;55.586;37.730;2022-12-07T01:00:29;5.47;;;2.27;;
62711;SDS011;48772;55.586;37.730;2022-12-07T01:02:55;3.33;;;1.93;;
62711;SDS011;48772;55.586;37.730;2022-12-07T01:05:22;5.47;;;3.20;;
62711;SDS011;48772;55.586;37.730;2022-12-07T01:07:47;3.47;;;2.07;;
62711;SDS011;48772;55.586;37.730;2022-12-07T01:10:13;3.53;;;2.17;;
62711;SDS011;48772;55.586;37.730;2022-12-07T01:12:39;5.97;;;2.63;;
62711;SDS011;48772;55.586;37.730;2022-12-07T01:15:07;4.77;;;2.80;;
62711;SDS011;48772;55.586;37.730;2022-12-07T01:17:34;4.17;;;2.03;;
62711;SDS011;48772;55.586;37.730;2022-12-07T01:20:00;4.37;;;2.50;;
62711;SDS011;48772;55.586;37.730;2022-12-07T01:22:26;6.13;;;2.47;;
62711;SDS011;48772;55.586;37.730;2022-12-07T01:24:52;4.07;;;2.23;;
62711;SDS011;48772;55.586;37.730;2022-12-07T01:27:18;3.17;;;2.13;;
62711;SDS011;48772;55.586;37.730;2022-12-07T01:29:44;4.80;;;2.03;;
62711;SDS011;48772;55.586;37.730;2022-12-07T01:32:09;5.53;;;2.17;;
62711;SDS011;48772;55.586;37.730;2022-12-07T01:34:36;3.57;;;1.97;;
62711;SDS011;48772;55.586;37.730;2022-12-07T01:37:02;5.00;;;2.50;;
62711;SDS011;48772;55.586;37.730;2022-12-07T01:39:28;5.97;;;3.00;;
62711;SDS011;48772;55.586;37.730;2022-12-07T01:41:55;7.80;;;3.37;;
62711;SDS011;48772;55.586;37.730;2022-12-07T01:46:50;4.00;;;2.53;;
62711;SDS011;48772;55.586;37.730;2022-12-07T01:52:29;3.60;;;2.43;;
62711;SDS011;48772;55.586;37.730;2022-12-07T01:54:59;3.50;;;2.53;;
62711;SDS011;48772;55.586;37.730;2022-12-07T01:57:29;6.37;;;2.60;;
62711;SDS011;48772;55.586;37.730;2022-12-07T01:59:58;5.20;;;2.37;;
62711;SDS011;48772;55.586;37.730;2022-12-07T02:02:41;3.47;;;2.70;;
62711;SDS011;48772;55.586;37.730;2022-12-07T02:05:21;9.93;;;2.60;;
62711;SDS011;48772;55.586;37.730;2022-12-07T02:07:49;2.63;;;1.93;;
62711;SDS011;48772;55.586;37.730;2022-12-07T02:10:28;3.50;;;2.50;;
62711;SDS011;48772;55.586;37.730;2022-12-07T02:13:06;2.63;;;2.00;;
62711;SDS011;48772;55.586;37.730;2022-12-07T02:24:45;3.43;;;2.23;;
62711;SDS011;48772;55.586;37.730;2022-12-07T02:30:01;3.70;;;2.17;;
62711;SDS011;48772;55.586;37.730;2022-12-07T02:35:05;4.10;;;2.58;;
62711;SDS011;48772;55.586;37.730;2022-12-07T02:37:43;4.67;;;2.33;;
62711;SDS011;48772;55.586;37.730;2022-12-07T02:42:46;4.10;;;2.57;;
62711;SDS011;48772;55.586;37.730;2022-12-07T02:45:21;7.60;;;3.07;;
62711;SDS011;48772;55.586;37.730;2022-12-07T02:47:51;7.47;;;3.00;;
62711;SDS011;48772;55.586;37.730;2022-12-07T02:50:21;4.07;;;2.67;;
62711;SDS011;48772;55.586;37.730;2022-12-07T02:52:47;3.93;;;2.17;;
62711;SDS011;48772;55.586;37.730;2022-12-07T02:55:14;5.50;;;2.80;;
62711;SDS011;48772;55.586;37.730;2022-12-07T03:00:32;4.87;;;2.03;;
62711;SDS011;48772;55.586;37.730;2022-12-07T03:03:10;6.63;;;3.23;;
62711;SDS011;48772;55.586;37.730;2022-12-07T03:05:49;4.87;;;2.27;;
62711;SDS011;48772;55.586;37.730;2022-12-07T03:08:45;5.67;;;2.90;;
62711;SDS011;48772;55.586;37.730;2022-12-07T03:11:14;7.65;;;2.33;;
62711;SDS011;48772;55.586;37.730;2022-12-07T03:14:07;4.37;;;2.37;;
62711;SDS011;48772;55.586;37.730;2022-12-07T03:19:33;4.30;;;1.97;;
62711;SDS011;48772;55.586;37.730;2022-12-07T03:22:02;6.73;;;2.83;;
62711;SDS011;48772;55.586;37.730;2022-12-07T03:24:43;7.97;;;3.90;;
62711;SDS011;48772;55.586;37.730;2022-12-07T03:27:19;4.33;;;2.47;;
62711;SDS011;48772;55.586;37.730;2022-12-07T03:29:52;6.47;;;2.77;;
62711;SDS011;48772;55.586;37.730;2022-12-07T03:32:24;11.47;;;2.70;;
62711;SDS011;48772;55.586;37.730;2022-12-07T03:35:11;3.57;;;2.13;;
62711;SDS011;48772;55.586;37.730;2022-12-07T03:37:44;5.70;;;3.25;;
62711;SDS011;48772;55.586;37.730;2022-12-07T03:42:51;7.57;;;2.10;;
62711;SDS011;48772;55.586;37.730;2022-12-07T03:45:19;14.20;;;3.27;;
62711;SDS011;48772;55.586;37.730;2022-12-07T03:47:57;4.93;;;2.30;;
62711;SDS011;48772;55.586;37.730;2022-12-07T03:50:48;1.33;;;1.03;;
62711;SDS011;48772;55.586;37.730;2022-12-07T03:53:34;3.03;;;1.73;;
62711;SDS011;48772;55.586;37.730;2022-12-07T03:56:05;3.35;;;1.95;;
62711;SDS011;48772;55.586;37.730;2022-12-07T03:58:33;4.60;;;2.57;;
62711;SDS011;48772;55.586;37.730;2022-12-07T04:01:00;6.70;;;2.73;;
62711;SDS011;48772;55.586;37.730;2022-12-07T04:03:26;4.40;;;2.43;;
62711;SDS011;48772;55.586;37.730;2022-12-07T04:05:52;3.83;;;1.87;;
62711;SDS011;48772;55.586;37.730;2022-12-07T04:08:18;9.23;;;3.83;;
62711;SDS011;48772;55.586;37.730;2022-12-07T04:10:44;2.50;;;1.80;;
62711;SDS011;48772;55.586;37.730;2022-12-07T04:13:10;4.47;;;2.47;;
62711;SDS011;48772;55.586;37.730;2022-12-07T04:15:36;5.23;;;2.40;;
62711;SDS011;48772;55.586;37.730;2022-12-07T04:18:02;3.13;;;2.03;;
62711;SDS011;48772;55.586;37.730;2022-12-07T04:20:28;2.27;;;1.80;;
62711;SDS011;48772;55.586;37.730;2022-12-07T04:22:54;4.67;;;2.70;;
62711;SDS011;48772;55.586;37.730;2022-12-07T04:25:19;5.33;;;2.80;;
62711;SDS011;48772;55.586;37.730;2022-12-07T04:27:45;7.70;;;3.20;;
62711;SDS011;48772;55.586;37.730;2022-12-07T04:30:11;4.50;;;2.97;;
62711;SDS011;48772;55.586;37.730;2022-12-07T04:32:37;4.47;;;2.30;;
62711;SDS011;48772;55.586;37.730;2022-12-07T04:35:03;5.73;;;2.60;;
62711;SDS011;48772;55.586;37.730;2022-12-07T04:37:30;3.70;;;2.13;;
62711;SDS011;48772;55.586;37.730;2022-12-07T04:39:56;4.97;;;3.30;;
62711;SDS011;48772;55.586;37.730;2022-12-07T04:42:22;5.80;;;3.40;;
62711;SDS011;48772;55.586;37.730;2022-12-07T04:44:48;5.40;;;3.13;;
62711;SDS011;48772;55.586;37.730;2022-12-07T04:47:16;9.63;;;4.30;;
62711;SDS011;48772;55.586;37.730;2022-12-07T04:49:42;5.97;;;2.93;;
62711;SDS011;48772;55.586;37.730;2022-12-07T04:52:08;6.10;;;3.53;;
62711;SDS011;48772;55.586;37.730;2022-12-07T04:54:34;9.03;;;3.57;;
62711;SDS011;48772;55.586;37.730;2022-12-07T04:56:59;9.20;;;3.87;;
62711;SDS011;48772;55.586;37.730;2022-12-07T04:59:25;6.43;;;2.90;;
62711;SDS011;48772;55.586;37.730;2022-12-07T05:01:51;4.93;;;2.83;;
62711;SDS011;48772;55.586;37.730;2022-12-07T05:04:18;6.77;;;3.97;;
62711;SDS011;48772;55.586;37.730;2022-12-07T05:06:44;6.40;;;3.17;;
62711;SDS011;48772;55.586;37.730;2022-12-07T05:09:10;9.47;;;3.30;;
62711;SDS011;48772;55.586;37.730;2022-12-07T05:11:36;5.67;;;3.17;;
62711;SDS011;48772;55.586;37.730;2022-12-07T05:14:25;5.67;;;3.27;;
62711;SDS011;48772;55.586;37.730;2022-12-07T05:16:51;7.50;;;3.90;;
62711;SDS011;48772;55.586;37.730;2022-12-07T05:19:19;6.90;;;3.73;;
62711;SDS011;48772;55.586;37.730;2022-12-07T05:21:45;5.43;;;2.87;;
62711;SDS011;48772;55.586;37.730;2022-12-07T05:24:12;5.47;;;2.93;;
62711;SDS011;48772;55.586;37.730;2022-12-07T05:26:42;8.10;;;4.13;;
62711;SDS011;48772;55.586;37.730;2022-12-07T05:29:15;6.00;;;2.77;;
62711;SDS011;48772;55.586;37.730;2022-12-07T05:31:54;5.97;;;3.07;;
62711;SDS011;48772;55.586;37.730;2022-12-07T05:34:20;6.17;;;3.20;;
62711;SDS011;48772;55.586;37.730;2022-12-07T05:36:55;5.10;;;2.73;;
62711;SDS011;48772;55.586;37.730;2022-12-07T05:39:21;10.47;;;4.77;;
62711;SDS011;48772;55.586;37.730;2022-12-07T05:41:47;7.70;;;3.93;;
62711;SDS011;48772;55.586;37.730;2022-12-07T05:44:31;5.13;;;2.77;;
62711;SDS011;48772;55.586;37.730;2022-12-07T05:46:58;4.00;;;2.97;;
62711;SDS011;48772;55.586;37.730;2022-12-07T05:49:24;8.73;;;4.30;;
62711;SDS011;48772;55.586;37.730;2022-12-07T05:51:50;10.67;;;4.97;;
62711;SDS011;48772;55.586;37.730;2022-12-07T05:54:16;4.43;;;2.23;;
62711;SDS011;48772;55.586;37.730;2022-12-07T05:56:46;4.57;;;3.17;;
62711;SDS011;48772;55.586;37.730;2022-12-07T05:59:14;5.80;;;3.00;;
62711;SDS011;48772;55.586;37.730;2022-12-07T06:04:30;7.83;;;3.70;;
62711;SDS011;48772;55.586;37.730;2022-12-07T06:06:57;6.50;;;3.37;;
62711;SDS011;48772;55.586;37.730;2022-12-07T06:09:24;9.27;;;3.70;;
62711;SDS011;48772;55.586;37.730;2022-12-07T06:11:52;10.27;;;5.07;;
62711;SDS011;48772;55.586;37.730;2022-12-07T06:14:37;6.73;;;3.87;;
62711;SDS011;48772;55.586;37.730;2022-12-07T06:17:03;6.03;;;3.57;;
62711;SDS011;48772;55.586;37.730;2022-12-07T06:19:29;7.03;;;3.97;;
62711;SDS011;48772;55.586;37.730;2022-12-07T06:21:55;10.23;;;4.47;;
62711;SDS011;48772;55.586;37.730;2022-12-07T06:24:22;8.67;;;4.63;;
62711;SDS011;48772;55.586;37.730;2022-12-07T06:26:48;11.67;;;4.73;;
62711;SDS011;48772;55.586;37.730;2022-12-07T06:29:17;8.50;;;4.27;;
62711;SDS011;48772;55.586;37.730;2022-12-07T06:31:44;9.03;;;3.90;;
62711;SDS011;48772;55.586;37.730;2022-12-07T06:34:10;7.33;;;3.63;;
62711;SDS011;48772;55.586;37.730;2022-12-07T06:36:42;14.47;;;3.90;;
62711;SDS011;48772;55.586;37.730;2022-12-07T06:39:09;9.97;;;4.53;;
62711;SDS011;48772;55.586;37.730;2022-12-07T06:41:39;7.77;;;4.07;;
62711;SDS011;48772;55.586;37.730;2022-12-07T06:44:06;6.73;;;4.07;;
62711;SDS011;48772;55.586;37.730;2022-12-07T06:46:32;7.17;;;4.13;;
62711;SDS011;48772;55.586;37.730;2022-12-07T06:49:00;7.67;;;4.10;;
62711;SDS011;48772;55.586;37.730;2022-12-07T06:51:27;8.23;;;4.30;;
62711;SDS011;48772;55.586;37.730;2022-12-07T06:53:54;7.40;;;4.30;;
62711;SDS011;48772;55.586;37.730;2022-12-07T06:56:20;11.63;;;4.23;;
62711;SDS011;48772;55.586;37.730;2022-12-07T06:58:48;14.13;;;4.83;;
62711;SDS011;48772;55.586;37.730;2022-12-07T07:01:18;10.70;;;4.70;;
62711;SDS011;48772;55.586;37.730;2022-12-07T07:03:47;8.93;;;4.60;;
62711;SDS011;48772;55.586;37.730;2022-12-07T07:09:13;8.53;;;4.10;;
62711;SDS011;48772;55.586;37.730;2022-12-07T07:11:43;8.53;;;4.83;;
62711;SDS011;48772;55.586;37.730;2022-12-07T07:14:09;8.53;;;4.97;;
62711;SDS011;48772;55.586;37.730;2022-12-07T07:16:35;7.72;;;4.53;;
62711;SDS011;48772;55.586;37.730;2022-12-07T07:19:01;11.63;;;4.40;;
62711;SDS011;48772;55.586;37.730;2022-12-07T07:21:27;7.80;;;3.70;;
62711;SDS011;48772;55.586;37.730;2022-12-07T07:23:53;8.23;;;4.68;;
62711;SDS011;48772;55.586;37.730;2022-12-07T07:26:19;10.80;;;4.30;;
62711;SDS011;48772;55.586;37.730;2022-12-07T07:28:45;9.60;;;4.68;;
62711;SDS011;48772;55.586;37.730;2022-12-07T07:31:11;15.48;;;5.43;;
62711;SDS011;48772;55.586;37.730;2022-12-07T07:33:36;6.93;;;4.07;;
62711;SDS011;48772;55.586;37.730;2022-12-07T07:36:05;9.30;;;5.40;;
62711;SDS011;48772;55.586;37.730;2022-12-07T07:38:32;7.68;;;4.10;;
62711;SDS011;48772;55.586;37.730;2022-12-07T07:40:58;10.18;;;4.88;;
62711;SDS011;48772;55.586;37.730;2022-12-07T07:43:27;9.05;;;4.78;;
62711;SDS011;48772;55.586;37.730;2022-12-07T07:45:53;10.32;;;4.10;;
62711;SDS011;48772;55.586;37.730;2022-12-07T07:48:19;8.20;;;4.07;;
62711;SDS011;48772;55.586;37.730;2022-12-07T07:50:45;6.28;;;4.07;;
62711;SDS011;48772;55.586;37.730;2022-12-07T07:53:12;7.85;;;3.80;;
62711;SDS011;48772;55.586;37.730;2022-12-07T07:55:38;8.95;;;4.53;;
62711;SDS011;48772;55.586;37.730;2022-12-07T07:58:04;7.38;;;3.80;;
62711;SDS011;48772;55.586;37.730;2022-12-07T08:00:50;5.45;;;4.03;;
62711;SDS011;48772;55.586;37.730;2022-12-07T08:03:17;11.88;;;3.10;;
62711;SDS011;48772;55.586;37.730;2022-12-07T08:05:43;7.53;;;4.20;;
62711;SDS011;48772;55.586;37.730;2022-12-07T08:08:09;7.13;;;4.55;;
62711;SDS011;48772;55.586;37.730;2022-12-07T08:10:38;9.13;;;4.53;;
62711;SDS011;48772;55.586;37.730;2022-12-07T08:13:05;9.02;;;4.75;;
62711;SDS011;48772;55.586;37.730;2022-12-07T08:16:07;11.95;;;5.93;;
62711;SDS011;48772;55.586;37.730;2022-12-07T08:18:35;14.05;;;6.07;;
62711;SDS011;48772;55.586;37.730;2022-12-07T08:21:03;5.18;;;3.55;;
62711;SDS011;48772;55.586;37.730;2022-12-07T08:23:31;7.38;;;4.63;;
62711;SDS011;48772;55.586;37.730;2022-12-07T08:26:21;9.73;;;4.28;;
62711;SDS011;48772;55.586;37.730;2022-12-07T08:28:47;8.15;;;4.35;;
62711;SDS011;48772;55.586;37.730;2022-12-07T08:31:16;7.97;;;5.03;;
62711;SDS011;48772;55.586;37.730;2022-12-07T08:34:09;4.93;;;3.60;;
62711;SDS011;48772;55.586;37.730;2022-12-07T08:37:36;7.68;;;4.18;;
62711;SDS011;48772;55.586;37.730;2022-12-07T08:40:10;8.05;;;4.78;;
62711;SDS011;48772;55.586;37.730;2022-12-07T08:42:54;8.48;;;4.47;;
62711;SDS011;48772;55.586;37.730;2022-12-07T08:45:23;6.30;;;3.97;;
62711;SDS011;48772;55.586;37.730;2022-12-07T08:47:53;6.75;;;4.57;;
62711;SDS011;48772;55.586;37.730;2022-12-07T08:51:33;4.57;;;3.17;;
62711;SDS011;48772;55.586;37.730;2022-12-07T08:54:09;8.02;;;4.13;;
62711;SDS011;48772;55.586;37.730;2022-12-07T08:56:41;7.38;;;3.88;;
62711;SDS011;48772;55.586;37.730;2022-12-07T08:59:09;4.88;;;3.60;;
62711;SDS011;48772;55.586;37.730;2022-12-07T09:01:39;8.15;;;4.72;;
62711;SDS011;48772;55.586;37.730;2022-12-07T09:04:06;6.65;;;4.07;;
62711;SDS011;48772;55.586;37.730;2022-12-07T09:06:32;5.22;;;4.20;;
62711;SDS011;48772;55.586;37.730;2022-12-07T09:08:59;5.95;;;3.85;;
62711;SDS011;48772;55.586;37.730;2022-12-07T09:11:30;7.28;;;4.10;;
62711;SDS011;48772;55.586;37.730;2022-12-07T09:13:56;4.80;;;3.38;;
62711;SDS011;48772;55.586;37.730;2022-12-07T09:16:23;5.63;;;3.13;;
62711;SDS011;48772;55.586;37.730;2022-12-07T09:18:49;5.38;;;3.70;;
62711;SDS011;48772;55.586;37.730;2022-12-07T09:21:15;8.15;;;4.25;;
62711;SDS011;48772;55.586;37.730;2022-12-07T09:23:41;6.85;;;4.28;;
62711;SDS011;48772;55.586;37.730;2022-12-07T09:26:08;5.88;;;3.55;;
62711;SDS011;48772;55.586;37.730;2022-12-07T09:28:34;8.43;;;4.70;;
62711;SDS011;48772;55.586;37.730;2022-12-07T09:31:02;15.48;;;4.18;;
62711;SDS011;48772;55.586;37.730;2022-12-07T09:33:28;6.15;;;3.65;;
62711;SDS011;48772;55.586;37.730;2022-12-07T09:35:54;5.85;;;4.00;;
62711;SDS011;48772;55.586;37.730;2022-12-07T09:38:21;4.38;;;3.25;;
62711;SDS011;48772;55.586;37.730;2022-12-07T09:40:47;6.70;;;3.65;;
62711;SDS011;48772;55.586;37.730;2022-12-07T09:43:16;7.65;;;4.25;;
62711;SDS011;48772;55.586;37.730;2022-12-07T09:45:57;6.43;;;3.65;;
62711;SDS011;48772;55.586;37.730;2022-12-07T09:48:37;5.85;;;3.65;;
62711;SDS011;48772;55.586;37.730;2022-12-07T09:51:30;7.53;;;4.32;;
62711;SDS011;48772;55.586;37.730;2022-12-07T09:53:59;6.97;;;4.15;;
62711;SDS011;48772;55.586;37.730;2022-12-07T09:56:29;7.97;;;3.63;;
62711;SDS011;48772;55.586;37.730;2022-12-07T09:58:59;5.53;;;3.53;;
62711;SDS011;48772;55.586;37.730;2022-12-07T10:01:30;5.32;;;3.88;;
62711;SDS011;48772;55.586;37.730;2022-12-07T10:06:42;6.43;;;4.07;;
62711;SDS011;48772;55.586;37.730;2022-12-07T10:09:14;6.97;;;3.67;;
62711;SDS011;48772;55.586;37.730;2022-12-07T10:15:20;5.70;;;3.63;;
62711;SDS011;48772;55.586;37.730;2022-12-07T10:18:18;9.27;;;4.35;;
62711;SDS011;48772;55.586;37.730;2022-12-07T10:23:29;7.22;;;4.60;;
62711;SDS011;48772;55.586;37.730;2022-12-07T10:25:56;10.00;;;4.60;;
62711;SDS011;48772;55.586;37.730;2022-12-07T10:28:22;6.20;;;3.88;;
62711;SDS011;48772;55.586;37.730;2022-12-07T10:31:22;8.27;;;4.50;;
62711;SDS011;48772;55.586;37.730;2022-12-07T10:33:50;6.65;;;4.05;;
62711;SDS011;48772;55.586;37.730;2022-12-07T10:36:23;8.23;;;3.58;;
62711;SDS011;48772;55.586;37.730;2022-12-07T10:41:53;6.47;;;4.13;;
62711;SDS011;48772;55.586;37.730;2022-12-07T10:44:21;6.57;;;3.63;;
62711;SDS011;48772;55.586;37.730;2022-12-07T10:51:24;6.50;;;3.17;;
62711;SDS011;48772;55.586;37.730;2022-12-07T10:54:44;9.45;;;4.82;;
62711;SDS011;48772;55.586;37.730;2022-12-07T11:02:40;7.78;;;4.00;;
62711;SDS011;48772;55.586;37.730;2022-12-07T11:05:37;7.88;;;3.90;;
62711;SDS011;48772;55.586;37.730;2022-12-07T11:17:36;7.53;;;4.30;;
62711;SDS011;48772;55.586;37.730;2022-12-07T11:22:50;11.07;;;4.82;;
62711;SDS011;48772;55.586;37.730;2022-12-07T11:25:31;9.10;;;5.40;;
62711;SDS011;48772;55.586;37.730;2022-12-07T11:30:34;6.50;;;4.18;;
62711;SDS011;48772;55.586;37.730;2022-12-07T11:33:10;7.93;;;4.72;;
62711;SDS011;48772;55.586;37.730;2022-12-07T11:38:15;9.73;;;5.40;;
62711;SDS011;48772;55.586;37.730;2022-12-07T11:40:43;7.80;;;4.18;;
62711;SDS011;48772;55.586;37.730;2022-12-07T11:43:31;6.50;;;4.53;;
62711;SDS011;48772;55.586;37.730;2022-12-07T11:46:02;8.20;;;5.00;;
62711;SDS011;48772;55.586;37.730;2022-12-07T11:48:38;8.30;;;4.13;;
62711;SDS011;48772;55.586;37.730;2022-12-07T11:51:11;9.00;;;5.25;;
62711;SDS011;48772;55.586;37.730;2022-12-07T11:53:38;8.82;;;5.43;;
62711;SDS011;48772;55.586;37.730;2022-12-07T11:56:22;8.32;;;5.65;;
62711;SDS011;48772;55.586;37.730;2022-12-07T12:07:17;9.90;;;4.97;;
62711;SDS011;48772;55.586;37.730;2022-12-07T12:09:51;12.57;;;5.55;;
62711;SDS011;48772;55.586;37.730;2022-12-07T12:15:19;16.20;;;6.43;;
62711;SDS011;48772;55.586;37.730;2022-12-07T12:17:56;11.13;;;5.97;;
62711;SDS011;48772;55.586;37.730;2022-12-07T12:20:43;14.82;;;5.50;;
62711;SDS011;48772;55.586;37.730;2022-12-07T12:25:49;14.38;;;5.07;;
62711;SDS011;48772;55.586;37.730;2022-12-07T12:33:52;8.60;;;4.70;;
62711;SDS011;48772;55.586;37.730;2022-12-07T12:51:46;15.90;;;6.85;;
62711;SDS011;48772;55.586;37.730;2022-12-07T13:01:47;10.23;;;5.32;;
62711;SDS011;48772;55.586;37.730;2022-12-07T13:04:24;9.63;;;5.28;;
62711;SDS011;48772;55.586;37.730;2022-12-07T13:07:04;12.00;;;5.43;;
62711;SDS011;48772;55.586;37.730;2022-12-07T13:09:34;14.93;;;6.30;;
62711;SDS011;48772;55.586;37.730;2022-12-07T13:12:05;9.60;;;4.97;;
62711;SDS011;48772;55.586;37.730;2022-12-07T13:19:58;7.40;;;3.93;;
62711;SDS011;48772;55.586;37.730;2022-12-07T13:24:58;6.17;;;4.47;;
62711;SDS011;48772;55.586;37.730;2022-12-07T13:27:31;10.65;;;4.32;;
62711;SDS011;48772;55.586;37.730;2022-12-07T13:29:57;8.40;;;3.00;;
62711;SDS011;48772;55.586;37.730;2022-12-07T13:32:25;13.77;;;7.00;;
62711;SDS011;48772;55.586;37.730;2022-12-07T13:34:53;7.30;;;4.10;;
62711;SDS011;48772;55.586;37.730;2022-12-07T13:39:53;10.43;;;4.90;;
62711;SDS011;48772;55.586;37.730;2022-12-07T13:42:25;9.00;;;4.83;;
62711;SDS011;48772;55.586;37.730;2022-12-07T13:44:59;13.97;;;6.83;;
62711;SDS011;48772;55.586;37.730;2022-12-07T13:47:49;11.88;;;5.07;;
62711;SDS011;48772;55.586;37.730;2022-12-07T13:50:23;5.80;;;3.30;;
62711;SDS011;48772;55.586;37.730;2022-12-07T13:53:00;8.73;;;4.90;;
62711;SDS011;48772;55.586;37.730;2022-12-07T13:55:27;11.03;;;6.20;;
62711;SDS011;48772;55.586;37.730;2022-12-07T13:57:55;8.20;;;3.67;;
62711;SDS011;48772;55.586;37.730;2022-12-07T14:00:22;10.20;;;4.33;;
62711;SDS011;48772;55.586;37.730;2022-12-07T14:02:58;12.13;;;5.50;;
62711;SDS011;48772;55.586;37.730;2022-12-07T14:05:39;9.47;;;5.17;;
62711;SDS011;48772;55.586;37.730;2022-12-07T14:10:37;14.57;;;6.23;;
62711;SDS011;48772;55.586;37.730;2022-12-07T14:13:28;10.43;;;5.60;;
62711;SDS011;48772;55.586;37.730;2022-12-07T14:15:54;10.70;;;4.60;;
62711;SDS011;48772;55.586;37.730;2022-12-07T14:18:47;14.87;;;6.43;;
62711;SDS011;48772;55.586;37.730;2022-12-07T14:23:39;9.23;;;5.33;;
62711;SDS011;48772;55.586;37.730;2022-12-07T14:26:13;16.07;;;7.13;;
62711;SDS011;48772;55.586;37.730;2022-12-07T14:28:41;9.57;;;5.43;;
62711;SDS011;48772;55.586;37.730;2022-12-07T14:31:16;13.43;;;4.57;;
62711;SDS011;48772;55.586;37.730;2022-12-07T14:33:44;16.87;;;6.43;;
62711;SDS011;48772;55.586;37.730;2022-12-07T14:36:11;13.67;;;6.70;;
62711;SDS011;48772;55.586;37.730;2022-12-07T14:38:38;12.13;;;6.57;;
62711;SDS011;48772;55.586;37.730;2022-12-07T14:41:15;12.77;;;5.53;;
62711;SDS011;48772;55.586;37.730;2022-12-07T14:44:12;7.17;;;5.17;;
62711;SDS011;48772;55.586;37.730;2022-12-07T14:46:38;12.17;;;5.83;;
62711;SDS011;48772;55.586;37.730;2022-12-07T14:49:05;7.87;;;4.70;;
62711;SDS011;48772;55.586;37.730;2022-12-07T14:51:31;13.47;;;5.30;;
62711;SDS011;48772;55.586;37.730;2022-12-07T14:53:59;10.53;;;5.30;;
62711;SDS011;48772;55.586;37.730;2022-12-07T14:56:26;8.63;;;5.07;;
62711;SDS011;48772;55.586;37.730;2022-12-07T14:58:53;9.70;;;5.50;;
62711;SDS011;48772;55.586;37.730;2022-12-07T15:01:19;6.17;;;2.90;;
62711;SDS011;48772;55.586;37.730;2022-12-07T15:03:45;10.70;;;5.53;;
62711;SDS011;48772;55.586;37.730;2022-12-07T15:06:14;9.73;;;4.90;;
62711;SDS011;48772;55.586;37.730;2022-12-07T15:08:44;9.37;;;4.53;;
62711;SDS011;48772;55.586;37.730;2022-12-07T15:11:11;9.77;;;5.40;;
62711;SDS011;48772;55.586;37.730;2022-12-07T15:13:41;9.73;;;4.43;;
62711;SDS011;48772;55.586;37.730;2022-12-07T15:16:26;8.67;;;4.63;;
62711;SDS011;48772;55.586;37.730;2022-12-07T15:18:52;12.67;;;4.90;;
62711;SDS011;48772;55.586;37.730;2022-12-07T15:21:21;7.40;;;3.93;;
62711;SDS011;48772;55.586;37.730;2022-12-07T15:23:47;12.00;;;6.63;;
62711;SDS011;48772;55.586;37.730;2022-12-07T15:26:13;10.73;;;5.97;;
62711;SDS011;48772;55.586;37.730;2022-12-07T15:28:40;10.70;;;4.87;;
62711;SDS011;48772;55.586;37.730;2022-12-07T15:31:13;12.03;;;5.17;;
62711;SDS011;48772;55.586;37.730;2022-12-07T15:33:41;11.00;;;5.20;;
62711;SDS011;48772;55.586;37.730;2022-12-07T15:36:07;10.23;;;5.53;;
62711;SDS011;48772;55.586;37.730;2022-12-07T15:38:40;9.53;;;5.40;;
62711;SDS011;48772;55.586;37.730;2022-12-07T15:41:05;13.70;;;5.90;;
62711;SDS011;48772;55.586;37.730;2022-12-07T15:43:31;9.93;;;5.13;;
62711;SDS011;48772;55.586;37.730;2022-12-07T15:48:41;10.33;;;4.83;;
62711;SDS011;48772;55.586;37.730;2022-12-07T15:51:08;9.23;;;5.03;;
62711;SDS011;48772;55.586;37.730;2022-12-07T15:53:34;10.60;;;5.97;;
62711;SDS011;48772;55.586;37.730;2022-12-07T15:56:05;12.00;;;5.67;;
62711;SDS011;48772;55.586;37.730;2022-12-07T15:58:31;10.13;;;5.30;;
62711;SDS011;48772;55.586;37.730;2022-12-07T16:00:57;11.37;;;5.03;;
62711;SDS011;48772;55.586;37.730;2022-12-07T16:03:23;20.60;;;6.90;;
62711;SDS011;48772;55.586;37.730;2022-12-07T16:05:50;10.73;;;5.47;;
62711;SDS011;48772;55.586;37.730;2022-12-07T16:08:17;16.20;;;6.93;;
62711;SDS011;48772;55.586;37.730;2022-12-07T16:10:43;13.27;;;5.30;;
62711;SDS011;48772;55.586;37.730;2022-12-07T16:13:11;13.10;;;6.37;;
62711;SDS011;48772;55.586;37.730;2022-12-07T16:15:42;10.47;;;4.33;;
62711;SDS011;48772;55.586;37.730;2022-12-07T16:18:08;9.23;;;5.40;;
62711;SDS011;48772;55.586;37.730;2022-12-07T16:20:34;13.03;;;6.27;;
62711;SDS011;48772;55.586;37.730;2022-12-07T16:23:00;11.83;;;5.23;;
62711;SDS011;48772;55.586;37.730;2022-12-07T16:25:27;10.77;;;5.83;;
62711;SDS011;48772;55.586;37.730;2022-12-07T16:27:53;9.87;;;5.70;;
62711;SDS011;48772;55.586;37.730;2022-12-07T16:30:19;15.67;;;6.23;;
62711;SDS011;48772;55.586;37.730;2022-12-07T16:32:45;13.00;;;5.23;;
62711;SDS011;48772;55.586;37.730;2022-12-07T16:35:11;11.57;;;5.13;;
62711;SDS011;48772;55.586;37.730;2022-12-07T16:37:38;11.67;;;4.80;;
62711;SDS011;48772;55.586;37.730;2022-12-07T16:40:04;14.10;;;6.17;;
62711;SDS011;48772;55.586;37.730;2022-12-07T16:42:32;19.40;;;4.97;;
62711;SDS011;48772;55.586;37.730;2022-12-07T16:45:08;8.97;;;5.40;;
62711;SDS011;48772;55.586;37.730;2022-12-07T16:47:37;10.37;;;5.50;;
62711;SDS011;48772;55.586;37.730;2022-12-07T16:50:03;10.20;;;5.73;;
62711;SDS011;48772;55.586;37.730;2022-12-07T16:52:30;15.13;;;6.17;;
62711;SDS011;48772;55.586;37.730;2022-12-07T16:54:55;9.10;;;4.87;;
62711;SDS011;48772;55.586;37.730;2022-12-07T16:57:22;12.03;;;5.50;;
62711;SDS011;48772;55.586;37.730;2022-12-07T16:59:47;9.60;;;5.23;;
62711;SDS011;48772;55.586;37.730;2022-12-07T17:02:13;13.30;;;5.20;;
62711;SDS011;48772;55.586;37.730;2022-12-07T17:04:39;11.13;;;5.50;;
62711;SDS011;48772;55.586;37.730;2022-12-07T17:07:09;10.17;;;5.30;;